65NC weather

Public forecast

Using degrees Fahrenheit for public forecast. Weather courtesy of forecast.io.

Closest aviation weather report (METAR) to Scenic Overlook B & B Heliport

Closest report is Mount Airy Surry County Airport, 8.2 nm (15.2 km) NW. Retrieved 2020/08/15 15:35 UTC (1 hour ago):

KMWK 151535Z AUTO 07005KT 10SM SCT011 SCT019 BKN033 25/23 A2996 RMK AO2 T02530231

Closest aviation forecast (TAF) to Scenic Overlook B & B Heliport

Closest forecast is Smith Reynolds Airport, 17.1 nm (31.7 km) SE. Retrieved 2020/08/15 12:22 UTC (5 hours ago):

TAF KINT 151120Z 1512/1612 06003KT 4SM BR VCSH OVC004 FM151500 06004KT 6SM BR SCT008 OVC015 FM151800 05006KT 6SM SHRA BKN025 TEMPO 1520/1524 2SM -TSRA BKN015CB FM160300 03003KT 2SM BR OVC007